Terminal Aerodrome Forecast
Issued by NWS Duluth, MN

Home | Current Version | Previous Version | Text Only | Print | Product List | Glossary On
Versions: 1 2 3 4 5 6 7 8 9 10 11 12 13 14 15 16 17 18 19 20 21
000
FTUS43 KDLH 202336
TAFINL
TAF
KINL 202336Z 2100/2124 24008KT P6SM BKN080
     FM210100 25011G19KT P6SM BKN060
     FM210200 28016G28KT P6SM VCSH SCT015 OVC020
      TEMPO 2106/2110 4SM -SHSN BKN015 OVC020
     FM211200 32014G24KT P6SM OVC025
     FM212000 29012G22KT P6SM BKN035
      AMD NOT SKED=

USA.gov is the U.S. government's official web portal to all federal, state and local government web resources and services.